Terminal Aerodrome Forecast
Issued by NWS

Home | Current Version | Previous Version | Text Only | Print | Product List | Glossary On
Versions: 1 2 3 4 5 6 7 8 9 10 11 12 13 14 15
000
FTAK31 PAJN 011100
TAFASI
TAF
PASI 011131Z 0112/0212 24006KT P6SM -SHRA SCT007 BKN015 OVC030
      TEMPO 0112/0115 3SM -SHRA BR BKN007 OVC015
     FM011900 25006KT P6SM -SHRA BKN050 OVC070
     FM020100 26006KT P6SM VCSH SCT050 BKN070
     FM020600 26006KT P6SM SCT050 BKN070=

USA.gov is the U.S. government's official web portal to all federal, state and local government web resources and services.